Aérodrome :
LOGIN :

S'inscrire | Disclaimer

   EN    FR    IT 

 










Légende :    VFR   VFR Marginal   IFR   IFR Intensif   IFR Très Intensif
Visi : 
Plafond : 
>= 8 km
>= 3000ft
5 à 8 km
1000 à 3000 ft
1500m à 5 km
500 à 1000 ft
800 à 1500m
200 à 500 ft
< 800m
< 200 ft
Symboles :   Orages  Brouillard  Fortes neiges  Fortes précipitations  Vent > 20 kt
SIGMETs :   Divers  Orages  Givrage  Turbulence  Onde Orograph.  Cendres Volcan.






- Altitude de l'aérodrome : 137 ft
- Code IATA : ARN


ESSA - Stockholm-Arlanda

DERNIER METAR :
  • 191920Z 03005KT CAVOK M00/M02 Q1004 R01L/09//95 R08/09//95 R01R/09//95 NOSIG

METARs EXPIRÉS :
  • 191850Z 03006KT CAVOK M00/M02 Q1004 R01L/09//95 R08/09//95 R01R/09//95 NOSIG
  • 191820Z 36006KT CAVOK M00/M03 Q1003 R01L/09//95 R08/09//95 R01R/09//95 NOSIG
  • 191750Z 01004KT CAVOK M01/M02 Q1003 R01L/09//95 R08/09//95 R01R/09//95 NOSIG
  • 191720Z VRB03KT CAVOK M00/M02 Q1002 R01L/09//95 R08/09//95 R01R/09//95 NOSIG
  • 191650Z 27003KT CAVOK 01/M01 Q1002 R01L/09//95 R08/09//95 R01R/09//95 NOSIG
  • 191620Z 27004KT CAVOK 03/M01 Q1001 R01L/09//95 R08/09//95 R01R/09//95 NOSIG

TAF TAF ESSA
Valide du 19 à 18h jusqu'au 20 à 18h UTC


191730Z 1918/2018 28003KT CAVOK
PROB40 2008/2012 BKN014
BECMG 2011/2013 18012KT
BECMG 2016/2018 18015G25KT



MET'MAP, la Météo Aéronautique d'un coup d'oeil ! - Copyright ORBIFLY Décembre 2007 - Disclaimer

ORBIFLY MET'MAP TEAM :

Programmation & Développement : Alexandra Zaïnal
Sur une idée originale de : Baudouin d'Aumeries
Assistance à la programmation : Marc-Olivier Méhu
Soutien technique & logistique : Manuel Goepfert

Contact : metmap@orbifly.com




SOURCES & CREDITS :

   NOAA